sensor_id;sensor_type;location;lat;lon;timestamp;P1;durP1;ratioP1;P2;durP2;ratioP2
2646;SDS011;1333;50.958;6.770;2023-06-04T00:01:58;2.20;;;0.80;;
2646;SDS011;1333;50.958;6.770;2023-06-04T00:04:25;3.00;;;1.20;;
2646;SDS011;1333;50.958;6.770;2023-06-04T00:06:50;1.60;;;1.07;;
2646;SDS011;1333;50.958;6.770;2023-06-04T00:09:16;1.70;;;1.00;;
2646;SDS011;1333;50.958;6.770;2023-06-04T00:11:41;1.43;;;1.23;;
2646;SDS011;1333;50.958;6.770;2023-06-04T00:14:07;1.20;;;1.07;;
2646;SDS011;1333;50.958;6.770;2023-06-04T00:16:32;1.43;;;1.23;;
2646;SDS011;1333;50.958;6.770;2023-06-04T00:19:00;3.00;;;1.00;;
2646;SDS011;1333;50.958;6.770;2023-06-04T00:21:26;1.47;;;1.20;;
2646;SDS011;1333;50.958;6.770;2023-06-04T00:23:51;1.73;;;1.30;;
2646;SDS011;1333;50.958;6.770;2023-06-04T00:26:17;1.10;;;0.90;;
2646;SDS011;1333;50.958;6.770;2023-06-04T00:28:43;1.17;;;0.90;;
2646;SDS011;1333;50.958;6.770;2023-06-04T00:31:08;1.27;;;0.90;;
2646;SDS011;1333;50.958;6.770;2023-06-04T00:33:35;1.87;;;1.00;;
2646;SDS011;1333;50.958;6.770;2023-06-04T00:36:01;1.57;;;1.07;;
2646;SDS011;1333;50.958;6.770;2023-06-04T00:38:26;1.50;;;1.17;;
2646;SDS011;1333;50.958;6.770;2023-06-04T00:40:52;1.60;;;1.17;;
2646;SDS011;1333;50.958;6.770;2023-06-04T00:43:17;2.40;;;1.43;;
2646;SDS011;1333;50.958;6.770;2023-06-04T00:45:44;2.53;;;1.50;;
2646;SDS011;1333;50.958;6.770;2023-06-04T00:48:10;1.30;;;1.20;;
2646;SDS011;1333;50.958;6.770;2023-06-04T00:50:36;1.67;;;1.13;;
2646;SDS011;1333;50.958;6.770;2023-06-04T00:53:03;1.20;;;1.00;;
2646;SDS011;1333;50.958;6.770;2023-06-04T00:55:30;2.03;;;1.23;;
2646;SDS011;1333;50.958;6.770;2023-06-04T00:57:56;1.27;;;1.00;;
2646;SDS011;1333;50.958;6.770;2023-06-04T01:00:22;1.90;;;1.30;;
2646;SDS011;1333;50.958;6.770;2023-06-04T01:02:48;1.67;;;1.30;;
2646;SDS011;1333;50.958;6.770;2023-06-04T01:05:26;1.10;;;0.90;;
2646;SDS011;1333;50.958;6.770;2023-06-04T01:07:58;1.20;;;0.93;;
2646;SDS011;1333;50.958;6.770;2023-06-04T01:10:24;1.30;;;1.17;;
2646;SDS011;1333;50.958;6.770;2023-06-04T01:12:50;1.30;;;0.90;;
2646;SDS011;1333;50.958;6.770;2023-06-04T01:15:16;1.53;;;0.90;;
2646;SDS011;1333;50.958;6.770;2023-06-04T01:17:42;1.43;;;1.17;;
2646;SDS011;1333;50.958;6.770;2023-06-04T01:25:28;2.03;;;1.00;;
2646;SDS011;1333;50.958;6.770;2023-06-04T01:28:02;1.53;;;0.80;;
2646;SDS011;1333;50.958;6.770;2023-06-04T01:30:30;1.30;;;1.20;;
2646;SDS011;1333;50.958;6.770;2023-06-04T01:32:57;1.30;;;0.80;;
2646;SDS011;1333;50.958;6.770;2023-06-04T01:35:25;1.90;;;1.33;;
2646;SDS011;1333;50.958;6.770;2023-06-04T01:37:52;1.57;;;1.30;;
2646;SDS011;1333;50.958;6.770;2023-06-04T01:40:19;2.03;;;1.40;;
2646;SDS011;1333;50.958;6.770;2023-06-04T01:42:45;1.57;;;0.93;;
2646;SDS011;1333;50.958;6.770;2023-06-04T01:45:10;1.10;;;1.00;;
2646;SDS011;1333;50.958;6.770;2023-06-04T01:47:36;1.00;;;0.83;;
2646;SDS011;1333;50.958;6.770;2023-06-04T01:50:02;1.40;;;1.10;;
2646;SDS011;1333;50.958;6.770;2023-06-04T01:52:37;1.00;;;0.90;;
2646;SDS011;1333;50.958;6.770;2023-06-04T01:55:04;1.20;;;0.93;;
2646;SDS011;1333;50.958;6.770;2023-06-04T01:57:32;2.10;;;1.30;;
2646;SDS011;1333;50.958;6.770;2023-06-04T01:59:58;1.47;;;1.10;;
2646;SDS011;1333;50.958;6.770;2023-06-04T02:02:24;1.37;;;1.03;;
2646;SDS011;1333;50.958;6.770;2023-06-04T02:04:50;1.00;;;0.80;;
2646;SDS011;1333;50.958;6.770;2023-06-04T02:07:16;1.33;;;0.97;;
2646;SDS011;1333;50.958;6.770;2023-06-04T02:09:45;2.17;;;1.20;;
2646;SDS011;1333;50.958;6.770;2023-06-04T02:12:11;1.47;;;1.00;;
2646;SDS011;1333;50.958;6.770;2023-06-04T02:14:37;1.17;;;1.07;;
2646;SDS011;1333;50.958;6.770;2023-06-04T02:17:03;1.30;;;1.00;;
2646;SDS011;1333;50.958;6.770;2023-06-04T02:19:29;1.33;;;1.13;;
2646;SDS011;1333;50.958;6.770;2023-06-04T02:21:58;1.20;;;1.10;;
2646;SDS011;1333;50.958;6.770;2023-06-04T02:24:23;1.73;;;1.10;;
2646;SDS011;1333;50.958;6.770;2023-06-04T02:26:49;2.00;;;1.30;;
2646;SDS011;1333;50.958;6.770;2023-06-04T02:29:14;1.30;;;1.20;;
2646;SDS011;1333;50.958;6.770;2023-06-04T02:31:40;1.77;;;1.37;;
2646;SDS011;1333;50.958;6.770;2023-06-04T02:34:05;1.93;;;1.43;;
2646;SDS011;1333;50.958;6.770;2023-06-04T02:36:31;1.77;;;1.03;;
2646;SDS011;1333;50.958;6.770;2023-06-04T02:38:56;1.60;;;1.03;;
2646;SDS011;1333;50.958;6.770;2023-06-04T02:41:23;1.30;;;1.00;;
2646;SDS011;1333;50.958;6.770;2023-06-04T02:43:48;1.60;;;1.03;;
2646;SDS011;1333;50.958;6.770;2023-06-04T02:46:14;3.87;;;1.37;;
2646;SDS011;1333;50.958;6.770;2023-06-04T02:48:40;1.30;;;1.10;;
2646;SDS011;1333;50.958;6.770;2023-06-04T02:51:05;1.97;;;1.20;;
2646;SDS011;1333;50.958;6.770;2023-06-04T02:53:34;1.30;;;1.10;;
2646;SDS011;1333;50.958;6.770;2023-06-04T02:56:00;2.37;;;1.37;;
2646;SDS011;1333;50.958;6.770;2023-06-04T02:58:26;2.47;;;0.97;;
2646;SDS011;1333;50.958;6.770;2023-06-04T03:00:53;0.90;;;0.77;;
2646;SDS011;1333;50.958;6.770;2023-06-04T03:03:19;1.47;;;1.07;;
2646;SDS011;1333;50.958;6.770;2023-06-04T03:05:45;1.40;;;1.30;;
2646;SDS011;1333;50.958;6.770;2023-06-04T03:08:11;3.43;;;1.23;;
2646;SDS011;1333;50.958;6.770;2023-06-04T03:10:37;2.00;;;1.10;;
2646;SDS011;1333;50.958;6.770;2023-06-04T03:13:02;1.53;;;1.43;;
2646;SDS011;1333;50.958;6.770;2023-06-04T03:15:28;1.87;;;1.07;;
2646;SDS011;1333;50.958;6.770;2023-06-04T03:17:54;1.97;;;1.10;;
2646;SDS011;1333;50.958;6.770;2023-06-04T03:20:20;1.43;;;1.33;;
2646;SDS011;1333;50.958;6.770;2023-06-04T03:22:49;1.70;;;1.07;;
2646;SDS011;1333;50.958;6.770;2023-06-04T03:25:17;2.07;;;1.30;;
2646;SDS011;1333;50.958;6.770;2023-06-04T03:27:43;2.17;;;1.47;;
2646;SDS011;1333;50.958;6.770;2023-06-04T03:30:08;2.77;;;1.60;;
2646;SDS011;1333;50.958;6.770;2023-06-04T03:32:35;2.23;;;1.30;;
2646;SDS011;1333;50.958;6.770;2023-06-04T03:35:00;1.77;;;1.20;;
2646;SDS011;1333;50.958;6.770;2023-06-04T03:37:26;1.73;;;1.33;;
2646;SDS011;1333;50.958;6.770;2023-06-04T03:39:52;1.43;;;0.90;;
2646;SDS011;1333;50.958;6.770;2023-06-04T03:42:18;1.33;;;1.23;;
2646;SDS011;1333;50.958;6.770;2023-06-04T03:44:43;1.83;;;1.33;;
2646;SDS011;1333;50.958;6.770;2023-06-04T03:47:09;1.80;;;1.10;;
2646;SDS011;1333;50.958;6.770;2023-06-04T03:49:35;2.23;;;1.30;;
2646;SDS011;1333;50.958;6.770;2023-06-04T03:52:00;1.77;;;1.67;;
2646;SDS011;1333;50.958;6.770;2023-06-04T03:54:26;1.50;;;1.40;;
2646;SDS011;1333;50.958;6.770;2023-06-04T03:56:51;2.30;;;1.27;;
2646;SDS011;1333;50.958;6.770;2023-06-04T03:59:17;2.40;;;1.53;;
2646;SDS011;1333;50.958;6.770;2023-06-04T04:01:43;2.33;;;1.27;;
2646;SDS011;1333;50.958;6.770;2023-06-04T04:04:08;1.70;;;1.10;;
2646;SDS011;1333;50.958;6.770;2023-06-04T04:06:34;1.77;;;1.00;;
2646;SDS011;1333;50.958;6.770;2023-06-04T04:09:00;1.40;;;1.10;;
2646;SDS011;1333;50.958;6.770;2023-06-04T04:11:27;2.27;;;1.53;;
2646;SDS011;1333;50.958;6.770;2023-06-04T04:13:52;1.50;;;0.93;;
2646;SDS011;1333;50.958;6.770;2023-06-04T04:16:18;1.70;;;1.40;;
2646;SDS011;1333;50.958;6.770;2023-06-04T04:18:44;1.80;;;1.07;;
2646;SDS011;1333;50.958;6.770;2023-06-04T04:21:10;1.70;;;1.50;;
2646;SDS011;1333;50.958;6.770;2023-06-04T04:23:37;3.83;;;1.20;;
2646;SDS011;1333;50.958;6.770;2023-06-04T04:26:05;1.97;;;1.20;;
2646;SDS011;1333;50.958;6.770;2023-06-04T04:28:31;2.50;;;1.23;;
2646;SDS011;1333;50.958;6.770;2023-06-04T04:30:57;1.60;;;1.20;;
2646;SDS011;1333;50.958;6.770;2023-06-04T04:33:24;1.20;;;1.10;;
2646;SDS011;1333;50.958;6.770;2023-06-04T04:35:50;1.97;;;1.57;;
2646;SDS011;1333;50.958;6.770;2023-06-04T04:38:17;2.40;;;1.43;;
2646;SDS011;1333;50.958;6.770;2023-06-04T04:40:44;1.77;;;1.33;;
2646;SDS011;1333;50.958;6.770;2023-06-04T04:43:12;2.50;;;1.17;;
2646;SDS011;1333;50.958;6.770;2023-06-04T04:45:38;1.97;;;1.20;;
2646;SDS011;1333;50.958;6.770;2023-06-04T04:48:03;1.37;;;1.20;;
2646;SDS011;1333;50.958;6.770;2023-06-04T04:50:29;1.70;;;1.30;;
2646;SDS011;1333;50.958;6.770;2023-06-04T04:52:56;2.50;;;1.20;;
2646;SDS011;1333;50.958;6.770;2023-06-04T04:55:22;1.50;;;1.20;;
2646;SDS011;1333;50.958;6.770;2023-06-04T04:57:48;1.90;;;1.60;;
2646;SDS011;1333;50.958;6.770;2023-06-04T05:00:13;1.93;;;1.30;;
2646;SDS011;1333;50.958;6.770;2023-06-04T05:02:40;4.17;;;1.57;;
2646;SDS011;1333;50.958;6.770;2023-06-04T05:05:06;1.27;;;0.90;;
2646;SDS011;1333;50.958;6.770;2023-06-04T05:07:32;1.90;;;1.50;;
2646;SDS011;1333;50.958;6.770;2023-06-04T05:09:57;3.03;;;1.40;;
2646;SDS011;1333;50.958;6.770;2023-06-04T05:12:24;1.57;;;1.20;;
2646;SDS011;1333;50.958;6.770;2023-06-04T05:14:51;3.03;;;1.67;;
2646;SDS011;1333;50.958;6.770;2023-06-04T05:17:16;1.60;;;1.40;;
2646;SDS011;1333;50.958;6.770;2023-06-04T05:19:46;1.67;;;1.40;;
2646;SDS011;1333;50.958;6.770;2023-06-04T05:22:12;1.23;;;1.03;;
2646;SDS011;1333;50.958;6.770;2023-06-04T05:24:40;3.63;;;1.70;;
2646;SDS011;1333;50.958;6.770;2023-06-04T05:27:06;8.63;;;1.63;;
2646;SDS011;1333;50.958;6.770;2023-06-04T05:29:34;1.70;;;1.60;;
2646;SDS011;1333;50.958;6.770;2023-06-04T05:31:59;3.00;;;1.77;;
2646;SDS011;1333;50.958;6.770;2023-06-04T05:34:25;1.77;;;1.40;;
2646;SDS011;1333;50.958;6.770;2023-06-04T05:36:51;2.20;;;1.90;;
2646;SDS011;1333;50.958;6.770;2023-06-04T05:39:17;3.70;;;1.90;;
2646;SDS011;1333;50.958;6.770;2023-06-04T05:41:43;3.00;;;1.97;;
2646;SDS011;1333;50.958;6.770;2023-06-04T05:44:10;1.93;;;1.40;;
2646;SDS011;1333;50.958;6.770;2023-06-04T05:46:35;2.13;;;1.50;;
2646;SDS011;1333;50.958;6.770;2023-06-04T05:49:01;2.27;;;1.70;;
2646;SDS011;1333;50.958;6.770;2023-06-04T05:51:27;3.50;;;1.80;;
2646;SDS011;1333;50.958;6.770;2023-06-04T05:53:52;3.00;;;1.53;;
2646;SDS011;1333;50.958;6.770;2023-06-04T05:56:18;1.97;;;1.70;;
2646;SDS011;1333;50.958;6.770;2023-06-04T05:58:43;2.33;;;2.03;;
2646;SDS011;1333;50.958;6.770;2023-06-04T06:01:09;2.00;;;1.77;;
2646;SDS011;1333;50.958;6.770;2023-06-04T06:03:35;1.53;;;1.30;;
2646;SDS011;1333;50.958;6.770;2023-06-04T06:06:01;2.90;;;1.60;;
2646;SDS011;1333;50.958;6.770;2023-06-04T06:08:27;2.47;;;1.73;;
2646;SDS011;1333;50.958;6.770;2023-06-04T06:10:52;1.60;;;1.47;;
2646;SDS011;1333;50.958;6.770;2023-06-04T06:13:18;2.07;;;1.40;;
2646;SDS011;1333;50.958;6.770;2023-06-04T06:15:45;2.93;;;2.50;;
2646;SDS011;1333;50.958;6.770;2023-06-04T06:18:11;2.87;;;2.20;;
2646;SDS011;1333;50.958;6.770;2023-06-04T06:20:37;1.70;;;1.60;;
2646;SDS011;1333;50.958;6.770;2023-06-04T06:23:06;2.70;;;1.33;;
2646;SDS011;1333;50.958;6.770;2023-06-04T06:25:31;2.27;;;2.07;;
2646;SDS011;1333;50.958;6.770;2023-06-04T06:27:57;1.80;;;1.50;;
2646;SDS011;1333;50.958;6.770;2023-06-04T06:30:22;3.20;;;1.40;;
2646;SDS011;1333;50.958;6.770;2023-06-04T06:32:48;2.03;;;1.50;;
2646;SDS011;1333;50.958;6.770;2023-06-04T06:35:14;2.83;;;1.80;;
2646;SDS011;1333;50.958;6.770;2023-06-04T06:37:40;2.27;;;1.70;;
2646;SDS011;1333;50.958;6.770;2023-06-04T06:40:08;2.07;;;1.60;;
2646;SDS011;1333;50.958;6.770;2023-06-04T06:42:34;1.90;;;1.70;;
2646;SDS011;1333;50.958;6.770;2023-06-04T06:45:00;2.13;;;1.93;;
2646;SDS011;1333;50.958;6.770;2023-06-04T06:47:25;1.87;;;1.67;;
2646;SDS011;1333;50.958;6.770;2023-06-04T06:49:51;1.67;;;1.47;;
2646;SDS011;1333;50.958;6.770;2023-06-04T06:52:16;2.50;;;1.60;;
2646;SDS011;1333;50.958;6.770;2023-06-04T06:54:44;1.77;;;1.67;;
2646;SDS011;1333;50.958;6.770;2023-06-04T06:57:10;1.60;;;1.50;;
2646;SDS011;1333;50.958;6.770;2023-06-04T06:59:37;1.57;;;1.47;;
2646;SDS011;1333;50.958;6.770;2023-06-04T07:02:02;3.43;;;2.33;;
2646;SDS011;1333;50.958;6.770;2023-06-04T07:04:29;2.27;;;1.60;;
2646;SDS011;1333;50.958;6.770;2023-06-04T07:06:54;2.00;;;1.90;;
2646;SDS011;1333;50.958;6.770;2023-06-04T07:09:20;4.40;;;1.63;;
2646;SDS011;1333;50.958;6.770;2023-06-04T07:11:45;1.93;;;1.67;;
2646;SDS011;1333;50.958;6.770;2023-06-04T07:14:11;2.40;;;2.20;;
2646;SDS011;1333;50.958;6.770;2023-06-04T07:16:36;1.70;;;1.60;;
2646;SDS011;1333;50.958;6.770;2023-06-04T07:19:02;2.57;;;1.77;;
2646;SDS011;1333;50.958;6.770;2023-06-04T07:21:28;2.87;;;2.00;;
2646;SDS011;1333;50.958;6.770;2023-06-04T07:23:53;1.70;;;1.60;;
2646;SDS011;1333;50.958;6.770;2023-06-04T07:26:19;2.80;;;1.90;;
2646;SDS011;1333;50.958;6.770;2023-06-04T07:28:45;1.93;;;1.73;;
2646;SDS011;1333;50.958;6.770;2023-06-04T07:31:10;2.10;;;1.77;;
2646;SDS011;1333;50.958;6.770;2023-06-04T07:33:39;2.77;;;2.03;;
2646;SDS011;1333;50.958;6.770;2023-06-04T07:36:12;2.57;;;2.37;;
2646;SDS011;1333;50.958;6.770;2023-06-04T07:38:38;2.13;;;1.97;;
2646;SDS011;1333;50.958;6.770;2023-06-04T07:41:03;2.10;;;2.00;;
2646;SDS011;1333;50.958;6.770;2023-06-04T07:43:29;2.43;;;1.80;;
2646;SDS011;1333;50.958;6.770;2023-06-04T07:45:55;2.20;;;2.00;;
2646;SDS011;1333;50.958;6.770;2023-06-04T07:48:20;1.93;;;1.80;;
2646;SDS011;1333;50.958;6.770;2023-06-04T07:50:46;2.80;;;1.97;;
2646;SDS011;1333;50.958;6.770;2023-06-04T07:53:11;2.30;;;2.10;;
2646;SDS011;1333;50.958;6.770;2023-06-04T07:55:37;2.90;;;1.80;;
2646;SDS011;1333;50.958;6.770;2023-06-04T07:58:02;2.80;;;2.60;;
2646;SDS011;1333;50.958;6.770;2023-06-04T08:00:28;2.60;;;2.20;;
2646;SDS011;1333;50.958;6.770;2023-06-04T08:02:54;3.03;;;2.83;;
2646;SDS011;1333;50.958;6.770;2023-06-04T08:05:19;4.10;;;3.80;;
2646;SDS011;1333;50.958;6.770;2023-06-04T08:07:45;2.40;;;2.20;;
2646;SDS011;1333;50.958;6.770;2023-06-04T08:10:12;2.87;;;2.10;;
2646;SDS011;1333;50.958;6.770;2023-06-04T08:12:37;2.57;;;2.37;;
2646;SDS011;1333;50.958;6.770;2023-06-04T08:15:03;2.47;;;2.30;;
2646;SDS011;1333;50.958;6.770;2023-06-04T08:17:29;2.80;;;2.60;;
2646;SDS011;1333;50.958;6.770;2023-06-04T08:19:55;2.77;;;2.50;;
2646;SDS011;1333;50.958;6.770;2023-06-04T08:22:21;2.70;;;2.50;;
2646;SDS011;1333;50.958;6.770;2023-06-04T08:24:46;3.03;;;2.83;;
2646;SDS011;1333;50.958;6.770;2023-06-04T08:27:12;2.70;;;2.50;;
2646;SDS011;1333;50.958;6.770;2023-06-04T08:29:37;3.00;;;2.80;;
2646;SDS011;1333;50.958;6.770;2023-06-04T08:32:05;5.13;;;4.73;;
2646;SDS011;1333;50.958;6.770;2023-06-04T08:34:32;4.20;;;3.90;;
2646;SDS011;1333;50.958;6.770;2023-06-04T08:36:58;3.00;;;2.87;;
2646;SDS011;1333;50.958;6.770;2023-06-04T08:39:23;2.50;;;2.40;;
2646;SDS011;1333;50.958;6.770;2023-06-04T08:41:51;3.30;;;3.10;;
2646;SDS011;1333;50.958;6.770;2023-06-04T08:44:18;3.30;;;3.00;;
2646;SDS011;1333;50.958;6.770;2023-06-04T08:46:44;3.07;;;2.90;;
2646;SDS011;1333;50.958;6.770;2023-06-04T08:49:10;2.93;;;2.80;;
2646;SDS011;1333;50.958;6.770;2023-06-04T08:51:37;2.97;;;2.80;;
2646;SDS011;1333;50.958;6.770;2023-06-04T08:54:04;3.17;;;2.97;;
2646;SDS011;1333;50.958;6.770;2023-06-04T08:56:30;4.80;;;3.87;;
2646;SDS011;1333;50.958;6.770;2023-06-04T08:58:59;3.90;;;3.60;;
2646;SDS011;1333;50.958;6.770;2023-06-04T09:01:27;3.40;;;3.20;;
2646;SDS011;1333;50.958;6.770;2023-06-04T09:03:53;3.43;;;3.23;;
2646;SDS011;1333;50.958;6.770;2023-06-04T09:06:19;3.50;;;3.30;;
2646;SDS011;1333;50.958;6.770;2023-06-04T09:08:45;3.50;;;3.40;;
2646;SDS011;1333;50.958;6.770;2023-06-04T09:11:11;3.87;;;3.67;;
2646;SDS011;1333;50.958;6.770;2023-06-04T09:13:39;4.00;;;3.80;;
2646;SDS011;1333;50.958;6.770;2023-06-04T09:16:07;4.20;;;4.00;;
2646;SDS011;1333;50.958;6.770;2023-06-04T09:18:33;3.80;;;3.60;;
2646;SDS011;1333;50.958;6.770;2023-06-04T09:23:31;3.50;;;3.20;;
2646;SDS011;1333;50.958;6.770;2023-06-04T09:26:08;3.63;;;3.33;;
2646;SDS011;1333;50.958;6.770;2023-06-04T09:28:34;3.87;;;3.57;;
2646;SDS011;1333;50.958;6.770;2023-06-04T09:31:01;3.83;;;3.60;;
2646;SDS011;1333;50.958;6.770;2023-06-04T09:33:30;3.60;;;3.30;;
2646;SDS011;1333;50.958;6.770;2023-06-04T09:36:16;4.93;;;3.20;;
2646;SDS011;1333;50.958;6.770;2023-06-04T09:38:42;3.67;;;3.43;;
2646;SDS011;1333;50.958;6.770;2023-06-04T09:41:11;4.00;;;3.80;;
2646;SDS011;1333;50.958;6.770;2023-06-04T09:43:37;4.10;;;3.90;;
2646;SDS011;1333;50.958;6.770;2023-06-04T09:46:10;4.20;;;4.00;;
2646;SDS011;1333;50.958;6.770;2023-06-04T09:48:36;3.30;;;3.20;;
2646;SDS011;1333;50.958;6.770;2023-06-04T09:51:08;4.37;;;4.17;;
2646;SDS011;1333;50.958;6.770;2023-06-04T09:53:40;4.10;;;3.90;;
2646;SDS011;1333;50.958;6.770;2023-06-04T09:56:06;3.73;;;3.53;;
2646;SDS011;1333;50.958;6.770;2023-06-04T09:58:33;4.37;;;4.17;;
2646;SDS011;1333;50.958;6.770;2023-06-04T10:01:01;3.67;;;3.47;;
2646;SDS011;1333;50.958;6.770;2023-06-04T10:03:32;5.00;;;4.70;;
2646;SDS011;1333;50.958;6.770;2023-06-04T10:06:01;3.13;;;3.03;;
2646;SDS011;1333;50.958;6.770;2023-06-04T10:08:29;2.80;;;2.70;;
2646;SDS011;1333;50.958;6.770;2023-06-04T10:10:56;3.10;;;2.90;;
2646;SDS011;1333;50.958;6.770;2023-06-04T10:13:27;3.20;;;3.00;;
2646;SDS011;1333;50.958;6.770;2023-06-04T10:15:58;3.57;;;3.27;;
2646;SDS011;1333;50.958;6.770;2023-06-04T10:18:28;3.40;;;3.20;;
2646;SDS011;1333;50.958;6.770;2023-06-04T10:20:55;3.50;;;3.20;;
2646;SDS011;1333;50.958;6.770;2023-06-04T10:23:21;3.77;;;3.57;;
2646;SDS011;1333;50.958;6.770;2023-06-04T10:25:48;3.63;;;3.43;;
2646;SDS011;1333;50.958;6.770;2023-06-04T10:28:17;3.77;;;3.57;;
2646;SDS011;1333;50.958;6.770;2023-06-04T10:30:44;3.47;;;3.27;;
2646;SDS011;1333;50.958;6.770;2023-06-04T10:33:10;3.27;;;3.17;;
2646;SDS011;1333;50.958;6.770;2023-06-04T10:35:36;3.57;;;3.37;;
2646;SDS011;1333;50.958;6.770;2023-06-04T10:38:08;3.40;;;3.20;;
2646;SDS011;1333;50.958;6.770;2023-06-04T10:40:35;4.73;;;3.30;;
2646;SDS011;1333;50.958;6.770;2023-06-04T10:43:05;3.73;;;3.43;;
2646;SDS011;1333;50.958;6.770;2023-06-04T10:45:34;3.37;;;3.13;;
2646;SDS011;1333;50.958;6.770;2023-06-04T10:48:00;3.33;;;3.20;;
2646;SDS011;1333;50.958;6.770;2023-06-04T10:50:27;4.90;;;3.30;;
2646;SDS011;1333;50.958;6.770;2023-06-04T10:52:53;3.70;;;3.50;;
2646;SDS011;1333;50.958;6.770;2023-06-04T10:55:20;3.50;;;3.37;;
2646;SDS011;1333;50.958;6.770;2023-06-04T10:57:52;3.60;;;3.40;;
2646;SDS011;1333;50.958;6.770;2023-06-04T11:00:18;3.60;;;3.40;;
2646;SDS011;1333;50.958;6.770;2023-06-04T11:02:51;4.87;;;4.60;;
2646;SDS011;1333;50.958;6.770;2023-06-04T11:05:20;3.77;;;3.57;;
2646;SDS011;1333;50.958;6.770;2023-06-04T11:07:48;3.70;;;3.50;;
2646;SDS011;1333;50.958;6.770;2023-06-04T11:10:14;3.90;;;3.70;;
2646;SDS011;1333;50.958;6.770;2023-06-04T11:15:15;3.50;;;3.40;;
2646;SDS011;1333;50.958;6.770;2023-06-04T11:17:54;3.60;;;3.40;;
2646;SDS011;1333;50.958;6.770;2023-06-04T11:20:23;3.47;;;3.30;;
2646;SDS011;1333;50.958;6.770;2023-06-04T11:22:53;3.63;;;3.43;;
2646;SDS011;1333;50.958;6.770;2023-06-04T11:25:23;3.50;;;3.30;;
2646;SDS011;1333;50.958;6.770;2023-06-04T11:27:51;3.73;;;3.63;;
2646;SDS011;1333;50.958;6.770;2023-06-04T11:30:18;3.63;;;3.43;;
2646;SDS011;1333;50.958;6.770;2023-06-04T11:32:43;3.37;;;3.17;;
2646;SDS011;1333;50.958;6.770;2023-06-04T11:35:09;3.00;;;2.90;;
2646;SDS011;1333;50.958;6.770;2023-06-04T11:37:36;2.93;;;2.83;;
2646;SDS011;1333;50.958;6.770;2023-06-04T11:40:03;3.03;;;2.93;;
2646;SDS011;1333;50.958;6.770;2023-06-04T11:42:51;4.17;;;3.57;;
2646;SDS011;1333;50.958;6.770;2023-06-04T11:45:18;3.70;;;3.40;;
2646;SDS011;1333;50.958;6.770;2023-06-04T11:47:48;3.47;;;3.27;;
2646;SDS011;1333;50.958;6.770;2023-06-04T11:50:14;3.80;;;3.60;;
2646;SDS011;1333;50.958;6.770;2023-06-04T11:52:41;2.90;;;2.80;;
2646;SDS011;1333;50.958;6.770;2023-06-04T11:55:07;3.83;;;3.63;;
2646;SDS011;1333;50.958;6.770;2023-06-04T11:57:35;2.93;;;2.77;;
2646;SDS011;1333;50.958;6.770;2023-06-04T12:00:02;3.03;;;2.83;;
2646;SDS011;1333;50.958;6.770;2023-06-04T12:02:30;2.90;;;2.70;;
2646;SDS011;1333;50.958;6.770;2023-06-04T12:04:55;3.03;;;2.83;;
2646;SDS011;1333;50.958;6.770;2023-06-04T12:07:21;3.07;;;2.93;;
2646;SDS011;1333;50.958;6.770;2023-06-04T12:09:49;3.77;;;3.57;;
2646;SDS011;1333;50.958;6.770;2023-06-04T12:12:15;3.40;;;3.20;;
2646;SDS011;1333;50.958;6.770;2023-06-04T12:14:46;2.90;;;2.80;;
2646;SDS011;1333;50.958;6.770;2023-06-04T12:17:11;3.20;;;3.00;;
2646;SDS011;1333;50.958;6.770;2023-06-04T12:19:46;2.83;;;2.70;;
2646;SDS011;1333;50.958;6.770;2023-06-04T12:22:13;3.43;;;3.23;;
2646;SDS011;1333;50.958;6.770;2023-06-04T12:24:46;2.60;;;2.50;;
2646;SDS011;1333;50.958;6.770;2023-06-04T12:27:19;3.27;;;3.07;;
2646;SDS011;1333;50.958;6.770;2023-06-04T12:29:56;3.00;;;2.80;;
2646;SDS011;1333;50.958;6.770;2023-06-04T12:32:25;2.90;;;2.80;;
2646;SDS011;1333;50.958;6.770;2023-06-04T12:34:51;3.30;;;3.00;;
2646;SDS011;1333;50.958;6.770;2023-06-04T12:37:17;2.73;;;2.63;;
2646;SDS011;1333;50.958;6.770;2023-06-04T12:39:43;2.83;;;2.63;;
2646;SDS011;1333;50.958;6.770;2023-06-04T12:42:09;2.90;;;2.70;;
2646;SDS011;1333;50.958;6.770;2023-06-04T12:44:43;3.23;;;2.80;;
2646;SDS011;1333;50.958;6.770;2023-06-04T12:47:09;2.90;;;2.70;;
2646;SDS011;1333;50.958;6.770;2023-06-04T12:49:34;2.60;;;2.47;;
2646;SDS011;1333;50.958;6.770;2023-06-04T12:52:00;2.60;;;2.50;;
2646;SDS011;1333;50.958;6.770;2023-06-04T12:54:25;2.80;;;2.60;;
2646;SDS011;1333;50.958;6.770;2023-06-04T12:56:52;3.97;;;3.73;;
2646;SDS011;1333;50.958;6.770;2023-06-04T12:59:18;3.30;;;2.40;;
2646;SDS011;1333;50.958;6.770;2023-06-04T13:01:43;3.10;;;2.80;;
2646;SDS011;1333;50.958;6.770;2023-06-04T13:04:09;2.00;;;1.90;;
2646;SDS011;1333;50.958;6.770;2023-06-04T13:06:35;2.63;;;2.43;;
2646;SDS011;1333;50.958;6.770;2023-06-04T13:09:01;2.37;;;2.17;;
2646;SDS011;1333;50.958;6.770;2023-06-04T13:11:28;1.90;;;1.70;;
2646;SDS011;1333;50.958;6.770;2023-06-04T13:13:54;2.00;;;1.90;;
2646;SDS011;1333;50.958;6.770;2023-06-04T13:16:19;2.67;;;2.10;;
2646;SDS011;1333;50.958;6.770;2023-06-04T13:18:45;3.00;;;2.77;;
2646;SDS011;1333;50.958;6.770;2023-06-04T13:21:10;2.17;;;1.97;;
2646;SDS011;1333;50.958;6.770;2023-06-04T13:23:36;2.00;;;1.90;;
2646;SDS011;1333;50.958;6.770;2023-06-04T13:26:01;1.90;;;1.80;;
2646;SDS011;1333;50.958;6.770;2023-06-04T13:28:27;2.33;;;1.70;;
2646;SDS011;1333;50.958;6.770;2023-06-04T13:30:53;1.80;;;1.70;;
2646;SDS011;1333;50.958;6.770;2023-06-04T13:33:18;2.53;;;2.33;;
2646;SDS011;1333;50.958;6.770;2023-06-04T13:35:45;2.03;;;1.83;;
2646;SDS011;1333;50.958;6.770;2023-06-04T13:38:10;2.23;;;1.90;;
2646;SDS011;1333;50.958;6.770;2023-06-04T13:40:37;2.30;;;2.00;;
2646;SDS011;1333;50.958;6.770;2023-06-04T13:43:04;2.03;;;1.83;;
2646;SDS011;1333;50.958;6.770;2023-06-04T13:45:31;2.03;;;1.83;;
2646;SDS011;1333;50.958;6.770;2023-06-04T13:47:57;3.00;;;2.13;;
2646;SDS011;1333;50.958;6.770;2023-06-04T13:50:27;2.03;;;1.93;;
2646;SDS011;1333;50.958;6.770;2023-06-04T13:52:53;2.37;;;2.03;;
2646;SDS011;1333;50.958;6.770;2023-06-04T13:55:18;1.80;;;1.70;;
2646;SDS011;1333;50.958;6.770;2023-06-04T13:57:44;2.90;;;2.23;;
2646;SDS011;1333;50.958;6.770;2023-06-04T14:00:10;2.13;;;1.93;;
2646;SDS011;1333;50.958;6.770;2023-06-04T14:02:38;2.30;;;2.10;;
2646;SDS011;1333;50.958;6.770;2023-06-04T14:05:04;2.20;;;2.00;;
2646;SDS011;1333;50.958;6.770;2023-06-04T14:07:30;2.20;;;2.00;;
2646;SDS011;1333;50.958;6.770;2023-06-04T14:09:56;2.07;;;1.70;;
2646;SDS011;1333;50.958;6.770;2023-06-04T14:12:22;2.73;;;2.10;;
2646;SDS011;1333;50.958;6.770;2023-06-04T14:14:48;3.33;;;2.30;;
2646;SDS011;1333;50.958;6.770;2023-06-04T14:17:13;4.17;;;2.47;;
2646;SDS011;1333;50.958;6.770;2023-06-04T14:19:39;2.30;;;2.10;;
2646;SDS011;1333;50.958;6.770;2023-06-04T14:22:05;2.47;;;2.27;;
2646;SDS011;1333;50.958;6.770;2023-06-04T14:24:31;2.73;;;1.80;;
2646;SDS011;1333;50.958;6.770;2023-06-04T14:26:56;2.50;;;2.30;;
2646;SDS011;1333;50.958;6.770;2023-06-04T14:29:22;3.07;;;2.10;;
2646;SDS011;1333;50.958;6.770;2023-06-04T14:31:47;2.23;;;2.03;;
2646;SDS011;1333;50.958;6.770;2023-06-04T14:34:13;4.10;;;1.83;;
2646;SDS011;1333;50.958;6.770;2023-06-04T14:36:39;2.50;;;2.30;;
2646;SDS011;1333;50.958;6.770;2023-06-04T14:39:04;2.67;;;2.47;;
2646;SDS011;1333;50.958;6.770;2023-06-04T14:41:30;2.37;;;2.13;;
2646;SDS011;1333;50.958;6.770;2023-06-04T14:43:56;2.60;;;2.30;;
2646;SDS011;1333;50.958;6.770;2023-06-04T14:46:21;2.20;;;2.00;;
2646;SDS011;1333;50.958;6.770;2023-06-04T14:48:47;5.13;;;2.00;;
2646;SDS011;1333;50.958;6.770;2023-06-04T14:51:12;2.23;;;2.03;;
2646;SDS011;1333;50.958;6.770;2023-06-04T14:53:38;2.10;;;1.73;;
2646;SDS011;1333;50.958;6.770;2023-06-04T14:56:04;2.43;;;2.20;;
2646;SDS011;1333;50.958;6.770;2023-06-04T14:58:30;1.80;;;1.70;;
2646;SDS011;1333;50.958;6.770;2023-06-04T15:00:56;3.13;;;2.10;;
2646;SDS011;1333;50.958;6.770;2023-06-04T15:03:23;3.40;;;2.30;;
2646;SDS011;1333;50.958;6.770;2023-06-04T15:05:49;2.00;;;1.80;;
2646;SDS011;1333;50.958;6.770;2023-06-04T15:08:14;2.30;;;2.10;;
2646;SDS011;1333;50.958;6.770;2023-06-04T15:10:40;2.13;;;1.90;;
2646;SDS011;1333;50.958;6.770;2023-06-04T15:13:05;1.60;;;1.50;;
2646;SDS011;1333;50.958;6.770;2023-06-04T15:15:31;2.27;;;1.60;;
2646;SDS011;1333;50.958;6.770;2023-06-04T15:17:57;2.03;;;1.83;;
2646;SDS011;1333;50.958;6.770;2023-06-04T15:20:22;3.27;;;2.40;;
2646;SDS011;1333;50.958;6.770;2023-06-04T15:22:52;2.33;;;2.13;;